sensor_id;sensor_type;location;lat;lon;timestamp;pressure;altitude;pressure_sealevel;temperature;humidity
80627;BME280;69982;51.758;5.784;2024-01-25T00:01:42;102728.02;;;8.77;73.86
80627;BME280;69982;51.758;5.784;2024-01-25T00:04:09;102721.49;;;8.77;73.84
80627;BME280;69982;51.758;5.784;2024-01-25T00:07:02;102717.77;;;8.76;73.81
80627;BME280;69982;51.758;5.784;2024-01-25T00:09:34;102727.17;;;8.74;73.79
80627;BME280;69982;51.758;5.784;2024-01-25T00:12:33;102738.11;;;8.70;73.73
80627;BME280;69982;51.758;5.784;2024-01-25T00:14:59;102734.46;;;8.65;73.84
80627;BME280;69982;51.758;5.784;2024-01-25T00:17:28;102725.95;;;8.60;73.86
80627;BME280;69982;51.758;5.784;2024-01-25T00:19:57;102730.59;;;8.59;73.93
80627;BME280;69982;51.758;5.784;2024-01-25T00:22:24;102734.33;;;8.59;73.89
80627;BME280;69982;51.758;5.784;2024-01-25T00:24:51;102743.13;;;8.60;73.70
80627;BME280;69982;51.758;5.784;2024-01-25T00:27:26;102736.76;;;8.58;73.73
80627;BME280;69982;51.758;5.784;2024-01-25T00:29:53;102738.42;;;8.55;73.72
80627;BME280;69982;51.758;5.784;2024-01-25T00:32:36;102742.66;;;8.51;73.80
80627;BME280;69982;51.758;5.784;2024-01-25T00:35:17;102740.25;;;8.47;73.97
80627;BME280;69982;51.758;5.784;2024-01-25T00:37:45;102737.02;;;8.41;73.84
80627;BME280;69982;51.758;5.784;2024-01-25T00:40:16;102739.29;;;8.37;74.09
80627;BME280;69982;51.758;5.784;2024-01-25T00:42:45;102744.34;;;8.32;74.08
80627;BME280;69982;51.758;5.784;2024-01-25T00:45:25;102749.42;;;8.28;74.21
80627;BME280;69982;51.758;5.784;2024-01-25T00:47:54;102751.08;;;8.28;74.14
80627;BME280;69982;51.758;5.784;2024-01-25T00:50:48;102747.34;;;8.30;74.21
80627;BME280;69982;51.758;5.784;2024-01-25T00:53:34;102750.49;;;8.31;74.11
80627;BME280;69982;51.758;5.784;2024-01-25T00:56:04;102757.38;;;8.31;74.23
80627;BME280;69982;51.758;5.784;2024-01-25T00:58:36;102757.20;;;8.30;74.05
80627;BME280;69982;51.758;5.784;2024-01-25T01:01:17;102757.77;;;8.30;74.04
80627;BME280;69982;51.758;5.784;2024-01-25T01:04:06;102760.12;;;8.28;73.83
80627;BME280;69982;51.758;5.784;2024-01-25T01:06:37;102765.71;;;8.23;73.99
80627;BME280;69982;51.758;5.784;2024-01-25T01:09:09;102766.98;;;8.17;74.04
80627;BME280;69982;51.758;5.784;2024-01-25T01:11:40;102768.56;;;8.12;74.08
80627;BME280;69982;51.758;5.784;2024-01-25T01:14:15;102774.14;;;8.07;74.22
80627;BME280;69982;51.758;5.784;2024-01-25T01:16:44;102772.11;;;8.05;74.33
80627;BME280;69982;51.758;5.784;2024-01-25T01:19:14;102772.55;;;8.07;74.38
80627;BME280;69982;51.758;5.784;2024-01-25T01:21:41;102771.03;;;8.08;74.33
80627;BME280;69982;51.758;5.784;2024-01-25T01:24:10;102768.40;;;8.09;74.26
80627;BME280;69982;51.758;5.784;2024-01-25T01:26:41;102772.66;;;8.10;74.26
80627;BME280;69982;51.758;5.784;2024-01-25T01:29:30;102775.58;;;8.10;74.18
80627;BME280;69982;51.758;5.784;2024-01-25T01:32:20;102784.28;;;8.09;74.26
80627;BME280;69982;51.758;5.784;2024-01-25T01:35:01;102791.63;;;8.07;74.26
80627;BME280;69982;51.758;5.784;2024-01-25T01:37:43;102794.44;;;8.00;74.36
80627;BME280;69982;51.758;5.784;2024-01-25T01:40:23;102801.38;;;7.94;74.42
80627;BME280;69982;51.758;5.784;2024-01-25T01:43:02;102813.84;;;7.88;74.40
80627;BME280;69982;51.758;5.784;2024-01-25T01:45:51;102812.38;;;7.83;74.72
80627;BME280;69982;51.758;5.784;2024-01-25T01:48:42;102804.36;;;7.78;74.72
80627;BME280;69982;51.758;5.784;2024-01-25T01:51:14;102807.70;;;7.77;74.72
80627;BME280;69982;51.758;5.784;2024-01-25T01:53:41;102810.10;;;7.76;74.85
80627;BME280;69982;51.758;5.784;2024-01-25T01:56:08;102816.17;;;7.77;74.84
80627;BME280;69982;51.758;5.784;2024-01-25T01:58:36;102824.81;;;7.77;75.00
80627;BME280;69982;51.758;5.784;2024-01-25T02:01:03;102825.23;;;7.79;74.79
80627;BME280;69982;51.758;5.784;2024-01-25T02:03:31;102828.27;;;7.79;74.87
80627;BME280;69982;51.758;5.784;2024-01-25T02:06:01;102822.78;;;7.81;74.79
80627;BME280;69982;51.758;5.784;2024-01-25T02:08:29;102823.23;;;7.79;74.79
80627;BME280;69982;51.758;5.784;2024-01-25T02:11:05;102824.30;;;7.76;74.91
80627;BME280;69982;51.758;5.784;2024-01-25T02:13:31;102830.11;;;7.73;74.82
80627;BME280;69982;51.758;5.784;2024-01-25T02:15:58;102834.12;;;7.70;74.85
80627;BME280;69982;51.758;5.784;2024-01-25T02:18:25;102838.86;;;7.63;75.06
80627;BME280;69982;51.758;5.784;2024-01-25T02:20:52;102837.04;;;7.58;75.06
80627;BME280;69982;51.758;5.784;2024-01-25T02:23:19;102837.68;;;7.57;75.15
80627;BME280;69982;51.758;5.784;2024-01-25T02:25:45;102842.23;;;7.56;75.24
80627;BME280;69982;51.758;5.784;2024-01-25T02:28:26;102843.14;;;7.58;75.16
80627;BME280;69982;51.758;5.784;2024-01-25T02:30:55;102841.75;;;7.60;74.94
80627;BME280;69982;51.758;5.784;2024-01-25T02:33:26;102835.71;;;7.59;74.99
80627;BME280;69982;51.758;5.784;2024-01-25T02:35:52;102841.40;;;7.57;75.02
80627;BME280;69982;51.758;5.784;2024-01-25T02:38:19;102839.70;;;7.56;75.06
80627;BME280;69982;51.758;5.784;2024-01-25T02:40:46;102843.61;;;7.54;75.02
80627;BME280;69982;51.758;5.784;2024-01-25T02:43:15;102837.61;;;7.49;74.98
80627;BME280;69982;51.758;5.784;2024-01-25T02:45:42;102833.50;;;7.43;75.01
80627;BME280;69982;51.758;5.784;2024-01-25T02:48:08;102831.22;;;7.36;75.07
80627;BME280;69982;51.758;5.784;2024-01-25T02:50:38;102828.38;;;7.30;75.09
80627;BME280;69982;51.758;5.784;2024-01-25T02:53:04;102829.54;;;7.23;75.26
80627;BME280;69982;51.758;5.784;2024-01-25T02:55:31;102828.73;;;7.19;75.46
80627;BME280;69982;51.758;5.784;2024-01-25T02:57:58;102826.39;;;7.16;75.78
80627;BME280;69982;51.758;5.784;2024-01-25T03:00:26;102828.98;;;7.14;75.74
80627;BME280;69982;51.758;5.784;2024-01-25T03:02:53;102837.44;;;7.14;75.72
80627;BME280;69982;51.758;5.784;2024-01-25T03:05:20;102834.70;;;7.15;75.86
80627;BME280;69982;51.758;5.784;2024-01-25T03:07:52;102841.34;;;7.15;75.78
80627;BME280;69982;51.758;5.784;2024-01-25T03:10:19;102840.49;;;7.15;76.08
80627;BME280;69982;51.758;5.784;2024-01-25T03:12:46;102847.27;;;7.13;75.94
80627;BME280;69982;51.758;5.784;2024-01-25T03:15:12;102850.98;;;7.11;76.00
80627;BME280;69982;51.758;5.784;2024-01-25T03:17:39;102854.15;;;7.09;75.86
80627;BME280;69982;51.758;5.784;2024-01-25T03:20:07;102850.73;;;7.06;75.97
80627;BME280;69982;51.758;5.784;2024-01-25T03:22:33;102850.27;;;7.02;75.95
80627;BME280;69982;51.758;5.784;2024-01-25T03:25:00;102848.32;;;6.96;76.06
80627;BME280;69982;51.758;5.784;2024-01-25T03:27:27;102850.06;;;6.91;76.11
80627;BME280;69982;51.758;5.784;2024-01-25T03:29:53;102845.00;;;6.89;76.21
80627;BME280;69982;51.758;5.784;2024-01-25T03:32:20;102847.01;;;6.88;76.00
80627;BME280;69982;51.758;5.784;2024-01-25T03:34:46;102844.80;;;6.89;76.24
80627;BME280;69982;51.758;5.784;2024-01-25T03:37:15;102843.66;;;6.90;76.19
80627;BME280;69982;51.758;5.784;2024-01-25T03:39:45;102844.31;;;6.91;76.05
80627;BME280;69982;51.758;5.784;2024-01-25T03:42:11;102847.40;;;6.90;76.26
80627;BME280;69982;51.758;5.784;2024-01-25T03:44:38;102846.97;;;6.89;76.30
80627;BME280;69982;51.758;5.784;2024-01-25T03:47:11;102847.17;;;6.86;76.39
80627;BME280;69982;51.758;5.784;2024-01-25T03:49:37;102853.76;;;6.81;76.41
80627;BME280;69982;51.758;5.784;2024-01-25T03:52:04;102855.98;;;6.77;76.80
80627;BME280;69982;51.758;5.784;2024-01-25T03:54:31;102862.02;;;6.72;76.79
80627;BME280;69982;51.758;5.784;2024-01-25T03:56:58;102861.11;;;6.66;76.72
80627;BME280;69982;51.758;5.784;2024-01-25T03:59:25;102854.57;;;6.61;76.70
80627;BME280;69982;51.758;5.784;2024-01-25T04:01:52;102852.15;;;6.60;76.89
80627;BME280;69982;51.758;5.784;2024-01-25T04:04:21;102854.31;;;6.60;77.09
80627;BME280;69982;51.758;5.784;2024-01-25T04:06:52;102858.70;;;6.62;77.28
80627;BME280;69982;51.758;5.784;2024-01-25T04:09:19;102857.44;;;6.65;76.96
80627;BME280;69982;51.758;5.784;2024-01-25T04:11:46;102857.58;;;6.65;77.03
80627;BME280;69982;51.758;5.784;2024-01-25T04:14:13;102856.66;;;6.63;77.43
80627;BME280;69982;51.758;5.784;2024-01-25T04:16:40;102854.73;;;6.59;77.40
80627;BME280;69982;51.758;5.784;2024-01-25T04:19:07;102850.70;;;6.57;77.44
80627;BME280;69982;51.758;5.784;2024-01-25T04:21:37;102849.68;;;6.53;77.66
80627;BME280;69982;51.758;5.784;2024-01-25T04:24:04;102843.30;;;6.48;77.59
80627;BME280;69982;51.758;5.784;2024-01-25T04:26:31;102849.16;;;6.43;77.74
80627;BME280;69982;51.758;5.784;2024-01-25T04:28:59;102852.34;;;6.41;77.56
80627;BME280;69982;51.758;5.784;2024-01-25T04:31:26;102856.36;;;6.40;77.64
80627;BME280;69982;51.758;5.784;2024-01-25T04:33:56;102859.09;;;6.42;77.62
80627;BME280;69982;51.758;5.784;2024-01-25T04:36:25;102862.70;;;6.45;77.87
80627;BME280;69982;51.758;5.784;2024-01-25T04:38:52;102860.57;;;6.48;77.72
80627;BME280;69982;51.758;5.784;2024-01-25T04:41:19;102856.61;;;6.48;77.58
80627;BME280;69982;51.758;5.784;2024-01-25T04:43:45;102859.51;;;6.47;77.41
80627;BME280;69982;51.758;5.784;2024-01-25T04:46:13;102856.10;;;6.47;77.39
80627;BME280;69982;51.758;5.784;2024-01-25T04:48:42;102858.50;;;6.46;77.44
80627;BME280;69982;51.758;5.784;2024-01-25T04:51:16;102857.76;;;6.44;77.50
80627;BME280;69982;51.758;5.784;2024-01-25T04:53:43;102863.23;;;6.39;77.54
80627;BME280;69982;51.758;5.784;2024-01-25T04:56:12;102862.42;;;6.32;77.75
80627;BME280;69982;51.758;5.784;2024-01-25T04:58:39;102862.30;;;6.25;77.69
80627;BME280;69982;51.758;5.784;2024-01-25T05:01:06;102855.16;;;6.21;77.79
80627;BME280;69982;51.758;5.784;2024-01-25T05:03:35;102847.27;;;6.17;77.73
80627;BME280;69982;51.758;5.784;2024-01-25T05:06:02;102841.44;;;6.15;77.92
80627;BME280;69982;51.758;5.784;2024-01-25T05:08:28;102848.13;;;6.15;78.17
80627;BME280;69982;51.758;5.784;2024-01-25T05:10:58;102853.03;;;6.14;78.37
80627;BME280;69982;51.758;5.784;2024-01-25T05:13:27;102856.98;;;6.14;78.51
80627;BME280;69982;51.758;5.784;2024-01-25T05:15:54;102859.23;;;6.13;78.47
80627;BME280;69982;51.758;5.784;2024-01-25T05:18:20;102860.36;;;6.12;78.58
80627;BME280;69982;51.758;5.784;2024-01-25T05:20:47;102860.77;;;6.11;78.47
80627;BME280;69982;51.758;5.784;2024-01-25T05:23:14;102863.63;;;6.08;78.64
80627;BME280;69982;51.758;5.784;2024-01-25T05:25:43;102863.42;;;6.02;78.62
80627;BME280;69982;51.758;5.784;2024-01-25T05:28:09;102853.84;;;5.97;78.84
80627;BME280;69982;51.758;5.784;2024-01-25T05:30:36;102854.13;;;5.95;78.75
80627;BME280;69982;51.758;5.784;2024-01-25T05:33:03;102858.19;;;5.97;78.87
80627;BME280;69982;51.758;5.784;2024-01-25T05:35:29;102863.05;;;6.00;78.93
80627;BME280;69982;51.758;5.784;2024-01-25T05:37:56;102868.98;;;6.02;78.83
80627;BME280;69982;51.758;5.784;2024-01-25T05:40:26;102861.68;;;6.04;78.79
80627;BME280;69982;51.758;5.784;2024-01-25T05:42:53;102867.34;;;6.06;78.75
80627;BME280;69982;51.758;5.784;2024-01-25T05:45:29;102871.96;;;6.07;78.66
80627;BME280;69982;51.758;5.784;2024-01-25T05:47:56;102879.67;;;6.07;78.83
80627;BME280;69982;51.758;5.784;2024-01-25T05:50:31;102886.25;;;6.05;78.57
80627;BME280;69982;51.758;5.784;2024-01-25T05:52:57;102882.05;;;6.03;78.70
80627;BME280;69982;51.758;5.784;2024-01-25T05:55:25;102883.83;;;6.01;78.64
80627;BME280;69982;51.758;5.784;2024-01-25T05:57:52;102882.09;;;5.97;78.78
80627;BME280;69982;51.758;5.784;2024-01-25T06:00:18;102885.40;;;5.95;78.69
80627;BME280;69982;51.758;5.784;2024-01-25T06:02:51;102885.13;;;5.94;78.80
80627;BME280;69982;51.758;5.784;2024-01-25T06:05:17;102887.29;;;5.94;78.65
80627;BME280;69982;51.758;5.784;2024-01-25T06:07:47;102890.59;;;5.92;78.74
80627;BME280;69982;51.758;5.784;2024-01-25T06:10:16;102903.06;;;5.94;78.92
80627;BME280;69982;51.758;5.784;2024-01-25T06:13:00;102897.77;;;5.96;78.98
80627;BME280;69982;51.758;5.784;2024-01-25T06:15:27;102890.52;;;5.97;78.77
80627;BME280;69982;51.758;5.784;2024-01-25T06:17:54;102890.95;;;5.96;78.62
80627;BME280;69982;51.758;5.784;2024-01-25T06:20:44;102891.29;;;5.93;78.43
80627;BME280;69982;51.758;5.784;2024-01-25T06:23:11;102895.83;;;5.89;78.54
80627;BME280;69982;51.758;5.784;2024-01-25T06:25:38;102897.02;;;5.82;78.84
80627;BME280;69982;51.758;5.784;2024-01-25T06:28:05;102895.20;;;5.76;78.76
80627;BME280;69982;51.758;5.784;2024-01-25T06:30:36;102897.41;;;5.72;78.96
80627;BME280;69982;51.758;5.784;2024-01-25T06:33:03;102898.21;;;5.71;79.25
80627;BME280;69982;51.758;5.784;2024-01-25T06:35:30;102903.20;;;5.72;79.18
80627;BME280;69982;51.758;5.784;2024-01-25T06:37:58;102905.36;;;5.71;79.31
80627;BME280;69982;51.758;5.784;2024-01-25T06:40:25;102901.50;;;5.73;79.31
80627;BME280;69982;51.758;5.784;2024-01-25T06:42:52;102903.35;;;5.75;79.31
80627;BME280;69982;51.758;5.784;2024-01-25T06:45:26;102894.50;;;5.76;79.18
80627;BME280;69982;51.758;5.784;2024-01-25T06:47:52;102893.02;;;5.77;79.16
80627;BME280;69982;51.758;5.784;2024-01-25T06:50:20;102894.85;;;5.76;78.98
80627;BME280;69982;51.758;5.784;2024-01-25T06:52:46;102903.38;;;5.75;78.85
80627;BME280;69982;51.758;5.784;2024-01-25T06:55:13;102908.76;;;5.72;78.75
80627;BME280;69982;51.758;5.784;2024-01-25T06:57:40;102904.77;;;5.66;78.89
80627;BME280;69982;51.758;5.784;2024-01-25T07:00:07;102907.64;;;5.60;78.87
80627;BME280;69982;51.758;5.784;2024-01-25T07:02:39;102908.75;;;5.52;78.85
80627;BME280;69982;51.758;5.784;2024-01-25T07:05:06;102907.42;;;5.50;79.07
80627;BME280;69982;51.758;5.784;2024-01-25T07:07:33;102915.42;;;5.52;79.24
80627;BME280;69982;51.758;5.784;2024-01-25T07:09:59;102909.06;;;5.53;79.19
80627;BME280;69982;51.758;5.784;2024-01-25T07:12:29;102902.56;;;5.54;79.38
80627;BME280;69982;51.758;5.784;2024-01-25T07:14:58;102906.80;;;5.59;80.24
80627;BME280;69982;51.758;5.784;2024-01-25T07:17:28;102901.86;;;5.63;80.35
80627;BME280;69982;51.758;5.784;2024-01-25T07:19:54;102897.46;;;5.65;79.74
80627;BME280;69982;51.758;5.784;2024-01-25T07:22:22;102897.17;;;5.64;79.64
80627;BME280;69982;51.758;5.784;2024-01-25T07:24:52;102901.10;;;5.61;79.57
80627;BME280;69982;51.758;5.784;2024-01-25T07:27:19;102898.66;;;5.56;79.46
80627;BME280;69982;51.758;5.784;2024-01-25T07:30:03;102899.00;;;5.50;79.64
80627;BME280;69982;51.758;5.784;2024-01-25T07:32:30;102899.06;;;5.46;79.62
80627;BME280;69982;51.758;5.784;2024-01-25T07:34:57;102901.59;;;5.42;79.63
80627;BME280;69982;51.758;5.784;2024-01-25T07:37:27;102911.14;;;5.41;79.89
80627;BME280;69982;51.758;5.784;2024-01-25T07:39:53;102915.95;;;5.42;80.07
80627;BME280;69982;51.758;5.784;2024-01-25T07:42:20;102918.66;;;5.42;80.22
80627;BME280;69982;51.758;5.784;2024-01-25T07:44:47;102918.45;;;5.42;80.25
80627;BME280;69982;51.758;5.784;2024-01-25T07:47:13;102920.89;;;5.44;80.20
80627;BME280;69982;51.758;5.784;2024-01-25T07:49:43;102926.27;;;5.44;80.15
80627;BME280;69982;51.758;5.784;2024-01-25T07:52:10;102929.89;;;5.43;80.28
80627;BME280;69982;51.758;5.784;2024-01-25T07:54:36;102932.14;;;5.42;79.97
80627;BME280;69982;51.758;5.784;2024-01-25T07:57:03;102927.89;;;5.37;80.28
80627;BME280;69982;51.758;5.784;2024-01-25T07:59:30;102923.36;;;5.35;80.30
80627;BME280;69982;51.758;5.784;2024-01-25T08:01:57;102934.98;;;5.36;80.54
80627;BME280;69982;51.758;5.784;2024-01-25T08:04:27;102937.38;;;5.38;80.43
80627;BME280;69982;51.758;5.784;2024-01-25T08:06:58;102927.17;;;5.44;80.43
80627;BME280;69982;51.758;5.784;2024-01-25T08:09:33;102925.86;;;5.52;80.13
80627;BME280;69982;51.758;5.784;2024-01-25T08:12:07;102920.98;;;5.59;80.03
80627;BME280;69982;51.758;5.784;2024-01-25T08:14:34;102920.65;;;5.65;80.10
80627;BME280;69982;51.758;5.784;2024-01-25T08:17:00;102925.39;;;5.70;80.22
80627;BME280;69982;51.758;5.784;2024-01-25T08:19:34;102928.63;;;5.73;80.27
80627;BME280;69982;51.758;5.784;2024-01-25T08:22:02;102925.48;;;5.75;80.22
80627;BME280;69982;51.758;5.784;2024-01-25T08:24:28;102926.12;;;5.73;80.18
80627;BME280;69982;51.758;5.784;2024-01-25T08:26:55;102936.06;;;5.72;80.30
80627;BME280;69982;51.758;5.784;2024-01-25T08:29:27;102938.38;;;5.73;80.20
80627;BME280;69982;51.758;5.784;2024-01-25T08:31:53;102931.80;;;5.74;80.27
80627;BME280;69982;51.758;5.784;2024-01-25T08:34:25;102927.79;;;5.78;80.24
80627;BME280;69982;51.758;5.784;2024-01-25T08:36:54;102931.04;;;5.82;80.19
80627;BME280;69982;51.758;5.784;2024-01-25T08:39:21;102939.77;;;5.86;80.53
80627;BME280;69982;51.758;5.784;2024-01-25T08:41:56;102950.26;;;5.89;80.46
80627;BME280;69982;51.758;5.784;2024-01-25T08:44:26;102951.24;;;5.91;80.46
80627;BME280;69982;51.758;5.784;2024-01-25T08:46:53;102955.20;;;5.91;80.36
80627;BME280;69982;51.758;5.784;2024-01-25T08:49:20;102958.95;;;5.91;80.54
80627;BME280;69982;51.758;5.784;2024-01-25T08:51:47;102954.33;;;5.91;80.69
80627;BME280;69982;51.758;5.784;2024-01-25T08:54:14;102947.96;;;5.92;80.68
80627;BME280;69982;51.758;5.784;2024-01-25T08:56:41;102933.87;;;5.90;80.61
80627;BME280;69982;51.758;5.784;2024-01-25T08:59:10;102933.27;;;5.94;80.81
80627;BME280;69982;51.758;5.784;2024-01-25T09:01:37;102933.91;;;6.02;80.76
80627;BME280;69982;51.758;5.784;2024-01-25T09:04:05;102950.06;;;6.12;80.74
80627;BME280;69982;51.758;5.784;2024-01-25T09:06:31;102960.27;;;6.22;80.82
80627;BME280;69982;51.758;5.784;2024-01-25T09:09:00;102964.45;;;6.34;80.70
80627;BME280;69982;51.758;5.784;2024-01-25T09:11:27;102970.03;;;6.43;80.69
80627;BME280;69982;51.758;5.784;2024-01-25T09:13:56;102960.16;;;6.53;80.53
80627;BME280;69982;51.758;5.784;2024-01-25T09:16:29;102965.20;;;6.59;80.29
80627;BME280;69982;51.758;5.784;2024-01-25T09:18:57;102966.11;;;6.65;80.31
80627;BME280;69982;51.758;5.784;2024-01-25T09:21:28;102973.77;;;6.69;80.24
80627;BME280;69982;51.758;5.784;2024-01-25T09:23:55;102976.59;;;6.73;80.15
80627;BME280;69982;51.758;5.784;2024-01-25T09:26:27;102970.42;;;6.77;80.17
80627;BME280;69982;51.758;5.784;2024-01-25T09:28:54;102973.58;;;6.82;80.30
80627;BME280;69982;51.758;5.784;2024-01-25T09:31:20;102965.95;;;6.89;80.27
80627;BME280;69982;51.758;5.784;2024-01-25T09:33:47;102965.48;;;6.97;80.11
80627;BME280;69982;51.758;5.784;2024-01-25T09:36:17;102967.96;;;7.06;80.08
80627;BME280;69982;51.758;5.784;2024-01-25T09:39:04;102963.73;;;7.17;80.06
80627;BME280;69982;51.758;5.784;2024-01-25T09:41:35;102966.60;;;7.29;79.77
80627;BME280;69982;51.758;5.784;2024-01-25T09:44:03;102965.98;;;7.39;79.74
80627;BME280;69982;51.758;5.784;2024-01-25T09:46:30;102959.17;;;7.45;79.75
80627;BME280;69982;51.758;5.784;2024-01-25T09:49:02;102948.48;;;7.49;79.31
80627;BME280;69982;51.758;5.784;2024-01-25T09:51:36;102945.35;;;7.53;79.59
80627;BME280;69982;51.758;5.784;2024-01-25T09:54:07;102946.78;;;7.58;79.37
80627;BME280;69982;51.758;5.784;2024-01-25T09:56:34;102948.33;;;7.59;78.97
80627;BME280;69982;51.758;5.784;2024-01-25T09:59:02;102951.33;;;7.61;79.03
80627;BME280;69982;51.758;5.784;2024-01-25T10:01:37;102955.45;;;7.61;78.74
80627;BME280;69982;51.758;5.784;2024-01-25T10:04:06;102960.84;;;7.67;78.88
80627;BME280;69982;51.758;5.784;2024-01-25T10:06:34;102953.79;;;7.73;78.84
80627;BME280;69982;51.758;5.784;2024-01-25T10:09:01;102949.06;;;7.79;78.68
80627;BME280;69982;51.758;5.784;2024-01-25T10:11:28;102945.30;;;7.88;78.50
80627;BME280;69982;51.758;5.784;2024-01-25T10:14:04;102947.89;;;7.95;78.36
80627;BME280;69982;51.758;5.784;2024-01-25T10:16:38;102944.20;;;7.99;78.31
80627;BME280;69982;51.758;5.784;2024-01-25T10:19:06;102936.33;;;8.04;78.21
80627;BME280;69982;51.758;5.784;2024-01-25T10:21:41;102919.05;;;8.06;77.86
80627;BME280;69982;51.758;5.784;2024-01-25T10:24:09;102915.86;;;8.08;77.98
80627;BME280;69982;51.758;5.784;2024-01-25T10:26:36;102910.42;;;8.11;77.73
80627;BME280;69982;51.758;5.784;2024-01-25T10:29:03;102920.77;;;8.13;77.78
80627;BME280;69982;51.758;5.784;2024-01-25T10:31:38;102924.13;;;8.19;77.85
80627;BME280;69982;51.758;5.784;2024-01-25T10:34:05;102925.72;;;8.28;77.84
80627;BME280;69982;51.758;5.784;2024-01-25T10:36:34;102931.32;;;8.37;77.72
80627;BME280;69982;51.758;5.784;2024-01-25T10:39:02;102933.48;;;8.45;77.74
80627;BME280;69982;51.758;5.784;2024-01-25T10:41:31;102932.27;;;8.53;77.75
80627;BME280;69982;51.758;5.784;2024-01-25T10:44:04;102932.68;;;8.60;77.61
80627;BME280;69982;51.758;5.784;2024-01-25T10:46:33;102927.96;;;8.63;77.32
80627;BME280;69982;51.758;5.784;2024-01-25T10:49:01;102930.58;;;8.64;77.09
80627;BME280;69982;51.758;5.784;2024-01-25T10:51:29;102928.21;;;8.65;77.04
80627;BME280;69982;51.758;5.784;2024-01-25T10:53:57;102925.83;;;8.63;76.72
80627;BME280;69982;51.758;5.784;2024-01-25T10:56:27;102918.36;;;8.61;76.81
80627;BME280;69982;51.758;5.784;2024-01-25T10:58:59;102908.65;;;8.63;76.62
80627;BME280;69982;51.758;5.784;2024-01-25T11:01:33;102903.48;;;8.67;76.54
80627;BME280;69982;51.758;5.784;2024-01-25T11:04:00;102900.74;;;8.70;76.55
80627;BME280;69982;51.758;5.784;2024-01-25T11:06:27;102906.75;;;8.72;76.74
80627;BME280;69982;51.758;5.784;2024-01-25T11:09:04;102908.08;;;8.74;76.59
80627;BME280;69982;51.758;5.784;2024-01-25T11:11:40;102895.46;;;8.73;76.50
80627;BME280;69982;51.758;5.784;2024-01-25T11:14:13;102888.38;;;8.72;76.52
80627;BME280;69982;51.758;5.784;2024-01-25T11:16:44;102883.83;;;8.69;76.51
80627;BME280;69982;51.758;5.784;2024-01-25T11:19:20;102890.02;;;8.66;76.47
80627;BME280;69982;51.758;5.784;2024-01-25T11:22:02;102891.67;;;8.66;76.45
80627;BME280;69982;51.758;5.784;2024-01-25T11:24:37;102891.27;;;8.66;76.60
80627;BME280;69982;51.758;5.784;2024-01-25T11:27:14;102882.98;;;8.69;76.57
80627;BME280;69982;51.758;5.784;2024-01-25T11:29:41;102876.05;;;8.70;76.45
80627;BME280;69982;51.758;5.784;2024-01-25T11:32:11;102866.56;;;8.68;76.34
80627;BME280;69982;51.758;5.784;2024-01-25T11:34:58;102854.10;;;8.66;76.51
80627;BME280;69982;51.758;5.784;2024-01-25T11:37:28;102847.05;;;8.63;76.54
80627;BME280;69982;51.758;5.784;2024-01-25T11:40:15;102843.64;;;8.61;76.67
80627;BME280;69982;51.758;5.784;2024-01-25T11:42:45;102841.10;;;8.58;76.78
80627;BME280;69982;51.758;5.784;2024-01-25T11:45:36;102849.21;;;8.58;76.79
80627;BME280;69982;51.758;5.784;2024-01-25T11:48:48;102851.09;;;8.65;76.94
80627;BME280;69982;51.758;5.784;2024-01-25T11:51:15;102858.48;;;8.70;76.80
80627;BME280;69982;51.758;5.784;2024-01-25T11:53:42;102844.23;;;8.75;76.79
80627;BME280;69982;51.758;5.784;2024-01-25T11:56:19;102828.76;;;8.77;76.67
80627;BME280;69982;51.758;5.784;2024-01-25T11:58:57;102821.71;;;8.75;76.76
80627;BME280;69982;51.758;5.784;2024-01-25T12:01:34;102817.83;;;8.73;76.77
80627;BME280;69982;51.758;5.784;2024-01-25T12:04:01;102810.23;;;8.71;76.91
80627;BME280;69982;51.758;5.784;2024-01-25T12:06:29;102815.43;;;8.69;76.82
80627;BME280;69982;51.758;5.784;2024-01-25T12:09:10;102817.76;;;8.69;76.71
80627;BME280;69982;51.758;5.784;2024-01-25T12:11:39;102814.74;;;8.71;76.91
80627;BME280;69982;51.758;5.784;2024-01-25T12:14:10;102811.52;;;8.76;76.91
80627;BME280;69982;51.758;5.784;2024-01-25T12:16:36;102809.62;;;8.80;76.81
80627;BME280;69982;51.758;5.784;2024-01-25T12:19:09;102812.64;;;8.83;76.82
80627;BME280;69982;51.758;5.784;2024-01-25T12:21:36;102810.36;;;8.85;76.81
80627;BME280;69982;51.758;5.784;2024-01-25T12:24:05;102803.95;;;8.83;76.89
80627;BME280;69982;51.758;5.784;2024-01-25T12:26:54;102800.67;;;8.81;76.94
80627;BME280;69982;51.758;5.784;2024-01-25T12:29:21;102793.55;;;8.80;76.86
80627;BME280;69982;51.758;5.784;2024-01-25T12:31:59;102793.29;;;8.84;76.90
80627;BME280;69982;51.758;5.784;2024-01-25T12:34:36;102785.15;;;8.89;76.96
80627;BME280;69982;51.758;5.784;2024-01-25T12:37:26;102777.77;;;8.96;76.83
80627;BME280;69982;51.758;5.784;2024-01-25T12:40:17;102779.65;;;9.00;76.56
80627;BME280;69982;51.758;5.784;2024-01-25T12:42:52;102782.85;;;9.01;76.48
80627;BME280;69982;51.758;5.784;2024-01-25T12:45:42;102777.95;;;8.98;76.35
80627;BME280;69982;51.758;5.784;2024-01-25T12:48:32;102772.73;;;8.96;76.42
80627;BME280;69982;51.758;5.784;2024-01-25T12:51:22;102779.96;;;8.93;76.46
80627;BME280;69982;51.758;5.784;2024-01-25T12:53:56;102779.48;;;8.92;76.68
80627;BME280;69982;51.758;5.784;2024-01-25T12:56:28;102782.83;;;8.93;76.55
80627;BME280;69982;51.758;5.784;2024-01-25T12:59:42;102780.46;;;8.94;76.52
80627;BME280;69982;51.758;5.784;2024-01-25T13:02:12;102769.65;;;8.88;76.64
80627;BME280;69982;51.758;5.784;2024-01-25T13:04:50;102763.30;;;8.86;76.60
80627;BME280;69982;51.758;5.784;2024-01-25T13:07:18;102758.09;;;8.83;76.74
80627;BME280;69982;51.758;5.784;2024-01-25T13:09:47;102753.41;;;8.78;76.87
80627;BME280;69982;51.758;5.784;2024-01-25T13:12:18;102746.15;;;8.73;77.08
80627;BME280;69982;51.758;5.784;2024-01-25T13:14:56;102745.60;;;8.71;77.12
80627;BME280;69982;51.758;5.784;2024-01-25T13:17:28;102746.15;;;8.71;77.44
80627;BME280;69982;51.758;5.784;2024-01-25T13:19:59;102746.30;;;8.71;77.63